sensor_id;sensor_type;location;lat;lon;timestamp;temperature;humidity
16392;DHT22;8305;-33.882;151.134;2023-05-02T00:00:45;18.30;99.90
16392;DHT22;8305;-33.882;151.134;2023-05-02T00:03:16;18.50;99.90
16392;DHT22;8305;-33.882;151.134;2023-05-02T00:05:47;18.50;99.90
16392;DHT22;8305;-33.882;151.134;2023-05-02T00:08:18;18.60;99.90
16392;DHT22;8305;-33.882;151.134;2023-05-02T00:10:50;18.60;99.90
16392;DHT22;8305;-33.882;151.134;2023-05-02T00:13:21;18.70;99.90
16392;DHT22;8305;-33.882;151.134;2023-05-02T00:15:54;18.80;99.90
16392;DHT22;8305;-33.882;151.134;2023-05-02T00:18:25;18.80;99.90
16392;DHT22;8305;-33.882;151.134;2023-05-02T00:20:56;18.90;99.90
16392;DHT22;8305;-33.882;151.134;2023-05-02T00:23:30;18.90;99.90
16392;DHT22;8305;-33.882;151.134;2023-05-02T00:26:01;19.10;99.90
16392;DHT22;8305;-33.882;151.134;2023-05-02T00:28:32;19.20;99.90
16392;DHT22;8305;-33.882;151.134;2023-05-02T00:31:05;19.40;99.90
16392;DHT22;8305;-33.882;151.134;2023-05-02T00:33:36;19.40;99.90
16392;DHT22;8305;-33.882;151.134;2023-05-02T00:36:14;19.50;99.90
16392;DHT22;8305;-33.882;151.134;2023-05-02T00:38:48;19.50;99.90
16392;DHT22;8305;-33.882;151.134;2023-05-02T00:41:19;19.60;99.90
16392;DHT22;8305;-33.882;151.134;2023-05-02T00:43:50;19.70;99.90
16392;DHT22;8305;-33.882;151.134;2023-05-02T00:46:23;19.80;99.90
16392;DHT22;8305;-33.882;151.134;2023-05-02T00:48:54;20.00;99.90
16392;DHT22;8305;-33.882;151.134;2023-05-02T00:51:25;20.10;99.90
16392;DHT22;8305;-33.882;151.134;2023-05-02T00:53:57;20.10;99.90
16392;DHT22;8305;-33.882;151.134;2023-05-02T00:56:28;20.10;99.90
16392;DHT22;8305;-33.882;151.134;2023-05-02T00:59:00;20.10;99.90
16392;DHT22;8305;-33.882;151.134;2023-05-02T01:01:49;20.10;99.90
16392;DHT22;8305;-33.882;151.134;2023-05-02T01:04:33;20.20;99.90
16392;DHT22;8305;-33.882;151.134;2023-05-02T01:07:18;20.20;99.90
16392;DHT22;8305;-33.882;151.134;2023-05-02T01:10:07;20.20;99.90
16392;DHT22;8305;-33.882;151.134;2023-05-02T01:12:44;20.20;99.90
16392;DHT22;8305;-33.882;151.134;2023-05-02T01:15:19;20.30;99.90
16392;DHT22;8305;-33.882;151.134;2023-05-02T01:17:53;20.30;99.90
16392;DHT22;8305;-33.882;151.134;2023-05-02T01:20:29;20.40;99.90
16392;DHT22;8305;-33.882;151.134;2023-05-02T01:23:08;20.40;99.90
16392;DHT22;8305;-33.882;151.134;2023-05-02T01:26:05;20.50;99.90
16392;DHT22;8305;-33.882;151.134;2023-05-02T01:28:47;20.60;99.90
16392;DHT22;8305;-33.882;151.134;2023-05-02T01:31:20;20.70;99.90
16392;DHT22;8305;-33.882;151.134;2023-05-02T01:33:53;20.80;99.90
16392;DHT22;8305;-33.882;151.134;2023-05-02T01:36:26;20.90;99.90
16392;DHT22;8305;-33.882;151.134;2023-05-02T01:38:59;20.90;99.90
16392;DHT22;8305;-33.882;151.134;2023-05-02T01:41:34;21.00;99.90
16392;DHT22;8305;-33.882;151.134;2023-05-02T01:44:08;21.00;99.90
16392;DHT22;8305;-33.882;151.134;2023-05-02T01:46:42;21.10;99.90
16392;DHT22;8305;-33.882;151.134;2023-05-02T01:49:14;21.20;99.90
16392;DHT22;8305;-33.882;151.134;2023-05-02T01:51:47;21.40;99.90
16392;DHT22;8305;-33.882;151.134;2023-05-02T01:54:20;21.40;99.90
16392;DHT22;8305;-33.882;151.134;2023-05-02T01:56:56;21.40;99.90
16392;DHT22;8305;-33.882;151.134;2023-05-02T01:59:30;21.50;99.90
16392;DHT22;8305;-33.882;151.134;2023-05-02T02:02:03;21.60;99.90
16392;DHT22;8305;-33.882;151.134;2023-05-02T02:04:37;21.70;99.90
16392;DHT22;8305;-33.882;151.134;2023-05-02T02:07:12;21.70;99.90
16392;DHT22;8305;-33.882;151.134;2023-05-02T02:09:43;21.70;99.90
16392;DHT22;8305;-33.882;151.134;2023-05-02T02:12:22;21.70;99.90
16392;DHT22;8305;-33.882;151.134;2023-05-02T02:15:02;21.80;99.90
16392;DHT22;8305;-33.882;151.134;2023-05-02T02:17:39;21.70;99.90
16392;DHT22;8305;-33.882;151.134;2023-05-02T02:20:12;21.60;99.90
16392;DHT22;8305;-33.882;151.134;2023-05-02T02:22:45;21.50;99.90
16392;DHT22;8305;-33.882;151.134;2023-05-02T02:25:18;21.40;99.90
16392;DHT22;8305;-33.882;151.134;2023-05-02T02:27:49;21.40;99.90
16392;DHT22;8305;-33.882;151.134;2023-05-02T02:30:23;21.40;99.90
16392;DHT22;8305;-33.882;151.134;2023-05-02T02:32:54;21.40;99.90
16392;DHT22;8305;-33.882;151.134;2023-05-02T02:35:26;21.40;99.90
16392;DHT22;8305;-33.882;151.134;2023-05-02T02:38:09;21.40;99.90
16392;DHT22;8305;-33.882;151.134;2023-05-02T02:40:45;21.40;99.90
16392;DHT22;8305;-33.882;151.134;2023-05-02T02:43:22;21.40;99.90
16392;DHT22;8305;-33.882;151.134;2023-05-02T02:46:06;21.50;99.90
16392;DHT22;8305;-33.882;151.134;2023-05-02T02:48:46;21.60;99.90
16392;DHT22;8305;-33.882;151.134;2023-05-02T02:51:28;21.70;99.90
16392;DHT22;8305;-33.882;151.134;2023-05-02T02:54:04;21.90;99.90
16392;DHT22;8305;-33.882;151.134;2023-05-02T02:56:40;22.20;99.90
16392;DHT22;8305;-33.882;151.134;2023-05-02T02:59:14;22.40;99.90
16392;DHT22;8305;-33.882;151.134;2023-05-02T03:01:59;22.50;99.90
16392;DHT22;8305;-33.882;151.134;2023-05-02T03:04:33;22.40;99.90
16392;DHT22;8305;-33.882;151.134;2023-05-02T03:07:07;22.30;99.90
16392;DHT22;8305;-33.882;151.134;2023-05-02T03:09:42;22.10;99.90
16392;DHT22;8305;-33.882;151.134;2023-05-02T03:12:13;22.10;99.90
16392;DHT22;8305;-33.882;151.134;2023-05-02T03:14:45;22.10;99.90
16392;DHT22;8305;-33.882;151.134;2023-05-02T03:17:18;22.00;99.90
16392;DHT22;8305;-33.882;151.134;2023-05-02T03:19:49;21.80;99.90
16392;DHT22;8305;-33.882;151.134;2023-05-02T03:22:20;21.70;99.90
16392;DHT22;8305;-33.882;151.134;2023-05-02T03:24:51;21.70;99.90
16392;DHT22;8305;-33.882;151.134;2023-05-02T03:27:22;21.80;99.90
16392;DHT22;8305;-33.882;151.134;2023-05-02T03:29:53;21.90;99.90
16392;DHT22;8305;-33.882;151.134;2023-05-02T03:32:26;22.10;99.90
16392;DHT22;8305;-33.882;151.134;2023-05-02T03:34:57;22.10;99.90
16392;DHT22;8305;-33.882;151.134;2023-05-02T03:37:28;22.10;99.90
16392;DHT22;8305;-33.882;151.134;2023-05-02T03:40:02;22.20;99.90
16392;DHT22;8305;-33.882;151.134;2023-05-02T03:42:35;22.20;99.90
16392;DHT22;8305;-33.882;151.134;2023-05-02T03:45:08;22.20;99.90
16392;DHT22;8305;-33.882;151.134;2023-05-02T03:47:42;22.10;99.90
16392;DHT22;8305;-33.882;151.134;2023-05-02T03:50:13;22.10;99.90
16392;DHT22;8305;-33.882;151.134;2023-05-02T03:52:44;22.00;99.90
16392;DHT22;8305;-33.882;151.134;2023-05-02T03:55:15;22.00;99.90
16392;DHT22;8305;-33.882;151.134;2023-05-02T03:57:46;22.00;99.90
16392;DHT22;8305;-33.882;151.134;2023-05-02T04:00:17;22.10;99.90
16392;DHT22;8305;-33.882;151.134;2023-05-02T04:02:50;22.10;99.90
16392;DHT22;8305;-33.882;151.134;2023-05-02T04:05:21;22.10;99.90
16392;DHT22;8305;-33.882;151.134;2023-05-02T04:07:52;22.20;99.90
16392;DHT22;8305;-33.882;151.134;2023-05-02T04:10:23;22.30;99.90
16392;DHT22;8305;-33.882;151.134;2023-05-02T04:12:54;22.20;99.90
16392;DHT22;8305;-33.882;151.134;2023-05-02T04:15:25;22.10;99.90
16392;DHT22;8305;-33.882;151.134;2023-05-02T04:18:00;21.90;99.90
16392;DHT22;8305;-33.882;151.134;2023-05-02T04:20:31;21.80;99.90
16392;DHT22;8305;-33.882;151.134;2023-05-02T04:23:02;21.80;99.90
16392;DHT22;8305;-33.882;151.134;2023-05-02T04:25:34;21.70;99.90
16392;DHT22;8305;-33.882;151.134;2023-05-02T04:28:05;21.60;99.90
16392;DHT22;8305;-33.882;151.134;2023-05-02T04:33:10;21.50;99.90
16392;DHT22;8305;-33.882;151.134;2023-05-02T04:35:41;21.50;99.90
16392;DHT22;8305;-33.882;151.134;2023-05-02T04:38:12;21.50;99.90
16392;DHT22;8305;-33.882;151.134;2023-05-02T04:40:43;21.40;99.90
16392;DHT22;8305;-33.882;151.134;2023-05-02T04:43:14;21.40;99.90
16392;DHT22;8305;-33.882;151.134;2023-05-02T04:45:45;21.40;99.90
16392;DHT22;8305;-33.882;151.134;2023-05-02T04:48:18;21.40;99.90
16392;DHT22;8305;-33.882;151.134;2023-05-02T04:50:50;21.50;99.90
16392;DHT22;8305;-33.882;151.134;2023-05-02T04:53:22;21.70;99.90
16392;DHT22;8305;-33.882;151.134;2023-05-02T04:55:53;21.90;99.90
16392;DHT22;8305;-33.882;151.134;2023-05-02T04:58:24;22.00;99.90
16392;DHT22;8305;-33.882;151.134;2023-05-02T05:00:55;22.10;99.90
16392;DHT22;8305;-33.882;151.134;2023-05-02T05:03:29;22.20;99.90
16392;DHT22;8305;-33.882;151.134;2023-05-02T05:06:00;22.10;99.90
16392;DHT22;8305;-33.882;151.134;2023-05-02T05:08:31;22.00;99.90
16392;DHT22;8305;-33.882;151.134;2023-05-02T05:11:05;21.80;99.90
16392;DHT22;8305;-33.882;151.134;2023-05-02T05:13:36;21.70;99.90
16392;DHT22;8305;-33.882;151.134;2023-05-02T05:16:08;21.70;99.90
16392;DHT22;8305;-33.882;151.134;2023-05-02T05:18:41;21.70;99.90
16392;DHT22;8305;-33.882;151.134;2023-05-02T05:21:12;21.70;99.90
16392;DHT22;8305;-33.882;151.134;2023-05-02T05:23:43;21.80;99.90
16392;DHT22;8305;-33.882;151.134;2023-05-02T05:26:14;21.90;99.90
16392;DHT22;8305;-33.882;151.134;2023-05-02T05:28:46;21.90;99.90
16392;DHT22;8305;-33.882;151.134;2023-05-02T05:31:17;21.80;99.90
16392;DHT22;8305;-33.882;151.134;2023-05-02T05:33:50;21.60;99.90
16392;DHT22;8305;-33.882;151.134;2023-05-02T05:36:21;21.50;99.90
16392;DHT22;8305;-33.882;151.134;2023-05-02T05:38:53;21.50;99.90
16392;DHT22;8305;-33.882;151.134;2023-05-02T05:41:24;21.40;99.90
16392;DHT22;8305;-33.882;151.134;2023-05-02T05:43:55;21.40;99.90
16392;DHT22;8305;-33.882;151.134;2023-05-02T05:46:26;21.30;99.90
16392;DHT22;8305;-33.882;151.134;2023-05-02T05:48:59;21.30;99.90
16392;DHT22;8305;-33.882;151.134;2023-05-02T05:51:30;21.20;99.90
16392;DHT22;8305;-33.882;151.134;2023-05-02T05:54:01;21.20;99.90
16392;DHT22;8305;-33.882;151.134;2023-05-02T05:56:32;21.20;99.90
16392;DHT22;8305;-33.882;151.134;2023-05-02T05:59:03;21.30;99.90
16392;DHT22;8305;-33.882;151.134;2023-05-02T06:01:34;21.40;99.90
16392;DHT22;8305;-33.882;151.134;2023-05-02T06:04:07;21.50;99.90
16392;DHT22;8305;-33.882;151.134;2023-05-02T06:06:38;21.40;99.90
16392;DHT22;8305;-33.882;151.134;2023-05-02T06:09:09;21.40;99.90
16392;DHT22;8305;-33.882;151.134;2023-05-02T06:11:41;21.40;99.90
16392;DHT22;8305;-33.882;151.134;2023-05-02T06:14:12;21.40;99.90
16392;DHT22;8305;-33.882;151.134;2023-05-02T06:16:43;21.30;99.90
16392;DHT22;8305;-33.882;151.134;2023-05-02T06:19:16;21.30;99.90
16392;DHT22;8305;-33.882;151.134;2023-05-02T06:21:47;21.20;99.90
16392;DHT22;8305;-33.882;151.134;2023-05-02T06:24:18;21.10;99.90
16392;DHT22;8305;-33.882;151.134;2023-05-02T06:26:49;21.00;99.90
16392;DHT22;8305;-33.882;151.134;2023-05-02T06:29:20;21.00;99.90
16392;DHT22;8305;-33.882;151.134;2023-05-02T06:31:55;20.90;99.90
16392;DHT22;8305;-33.882;151.134;2023-05-02T06:34:28;20.90;99.90
16392;DHT22;8305;-33.882;151.134;2023-05-02T06:37:01;20.90;99.90
16392;DHT22;8305;-33.882;151.134;2023-05-02T06:39:33;20.80;99.90
16392;DHT22;8305;-33.882;151.134;2023-05-02T06:42:05;20.80;99.90
16392;DHT22;8305;-33.882;151.134;2023-05-02T06:44:36;20.70;99.90
16392;DHT22;8305;-33.882;151.134;2023-05-02T06:47:07;20.70;99.90
16392;DHT22;8305;-33.882;151.134;2023-05-02T06:49:40;20.60;99.90
16392;DHT22;8305;-33.882;151.134;2023-05-02T06:52:11;20.60;99.90
16392;DHT22;8305;-33.882;151.134;2023-05-02T06:54:42;20.50;99.90
16392;DHT22;8305;-33.882;151.134;2023-05-02T06:57:13;20.50;99.90
16392;DHT22;8305;-33.882;151.134;2023-05-02T06:59:44;20.40;99.90
16392;DHT22;8305;-33.882;151.134;2023-05-02T07:02:15;20.40;99.90
16392;DHT22;8305;-33.882;151.134;2023-05-02T07:04:48;20.40;99.90
16392;DHT22;8305;-33.882;151.134;2023-05-02T07:07:19;20.40;99.90
16392;DHT22;8305;-33.882;151.134;2023-05-02T07:09:50;20.30;99.90
16392;DHT22;8305;-33.882;151.134;2023-05-02T07:12:21;20.30;99.90
16392;DHT22;8305;-33.882;151.134;2023-05-02T07:14:52;20.20;99.90
16392;DHT22;8305;-33.882;151.134;2023-05-02T07:17:24;20.10;99.90
16392;DHT22;8305;-33.882;151.134;2023-05-02T07:19:57;20.10;99.90
16392;DHT22;8305;-33.882;151.134;2023-05-02T07:22:28;20.10;99.90
16392;DHT22;8305;-33.882;151.134;2023-05-02T07:24:59;20.10;99.90
16392;DHT22;8305;-33.882;151.134;2023-05-02T07:27:31;20.00;99.90
16392;DHT22;8305;-33.882;151.134;2023-05-02T07:30:02;20.00;99.90
16392;DHT22;8305;-33.882;151.134;2023-05-02T07:32:33;20.00;99.90
16392;DHT22;8305;-33.882;151.134;2023-05-02T07:35:06;20.00;99.90
16392;DHT22;8305;-33.882;151.134;2023-05-02T07:37:38;19.90;99.90
16392;DHT22;8305;-33.882;151.134;2023-05-02T07:40:09;19.90;99.90
16392;DHT22;8305;-33.882;151.134;2023-05-02T07:42:40;19.90;99.90
16392;DHT22;8305;-33.882;151.134;2023-05-02T07:45:12;19.80;99.90
16392;DHT22;8305;-33.882;151.134;2023-05-02T07:47:44;19.80;99.90
16392;DHT22;8305;-33.882;151.134;2023-05-02T07:50:17;19.70;99.90
16392;DHT22;8305;-33.882;151.134;2023-05-02T07:52:48;19.60;99.90
16392;DHT22;8305;-33.882;151.134;2023-05-02T07:55:20;19.60;99.90
16392;DHT22;8305;-33.882;151.134;2023-05-02T07:57:53;19.50;99.90
16392;DHT22;8305;-33.882;151.134;2023-05-02T08:00:24;19.40;99.90
16392;DHT22;8305;-33.882;151.134;2023-05-02T08:02:55;19.30;99.90
16392;DHT22;8305;-33.882;151.134;2023-05-02T08:05:28;19.20;99.90
16392;DHT22;8305;-33.882;151.134;2023-05-02T08:08:00;19.20;99.90
16392;DHT22;8305;-33.882;151.134;2023-05-02T08:10:31;19.10;99.90
16392;DHT22;8305;-33.882;151.134;2023-05-02T08:13:02;19.10;99.90
16392;DHT22;8305;-33.882;151.134;2023-05-02T08:15:33;19.10;99.90
16392;DHT22;8305;-33.882;151.134;2023-05-02T08:18:04;19.10;99.90
16392;DHT22;8305;-33.882;151.134;2023-05-02T08:20:37;19.20;99.90
16392;DHT22;8305;-33.882;151.134;2023-05-02T08:23:08;19.20;99.90
16392;DHT22;8305;-33.882;151.134;2023-05-02T08:25:40;19.30;99.90
16392;DHT22;8305;-33.882;151.134;2023-05-02T08:28:11;19.40;99.90
16392;DHT22;8305;-33.882;151.134;2023-05-02T08:30:42;19.50;99.90
16392;DHT22;8305;-33.882;151.134;2023-05-02T08:33:13;19.50;99.90
16392;DHT22;8305;-33.882;151.134;2023-05-02T08:35:47;19.50;99.90
16392;DHT22;8305;-33.882;151.134;2023-05-02T08:38:18;19.60;99.90
16392;DHT22;8305;-33.882;151.134;2023-05-02T08:40:49;19.60;99.90
16392;DHT22;8305;-33.882;151.134;2023-05-02T08:43:21;19.60;99.90
16392;DHT22;8305;-33.882;151.134;2023-05-02T08:45:53;19.60;99.90
16392;DHT22;8305;-33.882;151.134;2023-05-02T08:48:29;19.60;99.90
16392;DHT22;8305;-33.882;151.134;2023-05-02T08:51:03;19.60;99.90
16392;DHT22;8305;-33.882;151.134;2023-05-02T08:53:38;19.60;99.90
16392;DHT22;8305;-33.882;151.134;2023-05-02T08:56:10;19.60;99.90
16392;DHT22;8305;-33.882;151.134;2023-05-02T08:58:41;19.60;99.90
16392;DHT22;8305;-33.882;151.134;2023-05-02T09:01:15;19.60;99.90
16392;DHT22;8305;-33.882;151.134;2023-05-02T09:03:46;19.60;99.90
16392;DHT22;8305;-33.882;151.134;2023-05-02T09:06:21;19.50;99.90
16392;DHT22;8305;-33.882;151.134;2023-05-02T09:08:53;19.50;99.90
16392;DHT22;8305;-33.882;151.134;2023-05-02T09:11:25;19.50;99.90
16392;DHT22;8305;-33.882;151.134;2023-05-02T09:13:56;19.40;99.90
16392;DHT22;8305;-33.882;151.134;2023-05-02T09:16:38;19.40;99.90
16392;DHT22;8305;-33.882;151.134;2023-05-02T09:19:10;19.40;99.90
16392;DHT22;8305;-33.882;151.134;2023-05-02T09:21:59;19.40;99.90
16392;DHT22;8305;-33.882;151.134;2023-05-02T09:24:30;19.30;99.90
16392;DHT22;8305;-33.882;151.134;2023-05-02T09:27:02;19.30;99.90
16392;DHT22;8305;-33.882;151.134;2023-05-02T09:29:33;19.20;99.90
16392;DHT22;8305;-33.882;151.134;2023-05-02T09:32:05;19.20;99.90
16392;DHT22;8305;-33.882;151.134;2023-05-02T09:34:36;19.10;99.90
16392;DHT22;8305;-33.882;151.134;2023-05-02T09:37:09;19.10;99.90
16392;DHT22;8305;-33.882;151.134;2023-05-02T09:39:41;19.00;99.90
16392;DHT22;8305;-33.882;151.134;2023-05-02T09:42:32;19.00;99.90
16392;DHT22;8305;-33.882;151.134;2023-05-02T09:45:03;18.90;99.90
16392;DHT22;8305;-33.882;151.134;2023-05-02T09:47:34;18.90;99.90
16392;DHT22;8305;-33.882;151.134;2023-05-02T09:50:06;18.90;99.90
16392;DHT22;8305;-33.882;151.134;2023-05-02T09:52:39;18.90;99.90
16392;DHT22;8305;-33.882;151.134;2023-05-02T09:55:21;18.80;99.90
16392;DHT22;8305;-33.882;151.134;2023-05-02T09:57:52;18.80;99.90
16392;DHT22;8305;-33.882;151.134;2023-05-02T10:00:37;18.80;99.90
16392;DHT22;8305;-33.882;151.134;2023-05-02T10:03:08;18.80;99.90
16392;DHT22;8305;-33.882;151.134;2023-05-02T10:05:39;18.70;99.90
16392;DHT22;8305;-33.882;151.134;2023-05-02T10:08:13;18.60;99.90
16392;DHT22;8305;-33.882;151.134;2023-05-02T10:10:49;18.60;99.90
16392;DHT22;8305;-33.882;151.134;2023-05-02T10:13:23;18.60;99.90
16392;DHT22;8305;-33.882;151.134;2023-05-02T10:15:59;18.60;99.90
16392;DHT22;8305;-33.882;151.134;2023-05-02T10:18:37;18.60;99.90
16392;DHT22;8305;-33.882;151.134;2023-05-02T10:21:10;18.60;99.90
16392;DHT22;8305;-33.882;151.134;2023-05-02T10:23:44;18.50;99.90
16392;DHT22;8305;-33.882;151.134;2023-05-02T10:26:16;18.50;99.90
16392;DHT22;8305;-33.882;151.134;2023-05-02T10:28:50;18.40;99.90
16392;DHT22;8305;-33.882;151.134;2023-05-02T10:31:22;18.40;99.90
16392;DHT22;8305;-33.882;151.134;2023-05-02T10:33:56;18.40;99.90
16392;DHT22;8305;-33.882;151.134;2023-05-02T10:36:28;18.30;99.90
16392;DHT22;8305;-33.882;151.134;2023-05-02T10:39:03;18.30;99.90
16392;DHT22;8305;-33.882;151.134;2023-05-02T10:41:35;18.30;99.90
16392;DHT22;8305;-33.882;151.134;2023-05-02T10:44:08;18.20;99.90
16392;DHT22;8305;-33.882;151.134;2023-05-02T10:46:41;18.20;99.90
16392;DHT22;8305;-33.882;151.134;2023-05-02T10:49:13;18.20;99.90
16392;DHT22;8305;-33.882;151.134;2023-05-02T10:51:44;18.10;99.90
16392;DHT22;8305;-33.882;151.134;2023-05-02T10:54:24;18.00;99.90
16392;DHT22;8305;-33.882;151.134;2023-05-02T10:57:06;18.00;99.90
16392;DHT22;8305;-33.882;151.134;2023-05-02T10:59:38;18.00;99.90
16392;DHT22;8305;-33.882;151.134;2023-05-02T11:05:11;17.90;99.90
16392;DHT22;8305;-33.882;151.134;2023-05-02T11:07:43;17.80;99.90
16392;DHT22;8305;-33.882;151.134;2023-05-02T11:10:28;17.80;99.90
16392;DHT22;8305;-33.882;151.134;2023-05-02T11:12:59;17.60;99.90
16392;DHT22;8305;-33.882;151.134;2023-05-02T11:15:55;17.50;99.90
16392;DHT22;8305;-33.882;151.134;2023-05-02T11:18:26;17.40;99.90
16392;DHT22;8305;-33.882;151.134;2023-05-02T11:21:27;17.30;99.90
16392;DHT22;8305;-33.882;151.134;2023-05-02T11:27:39;17.10;99.90
16392;DHT22;8305;-33.882;151.134;2023-05-02T11:30:13;17.10;99.90
16392;DHT22;8305;-33.882;151.134;2023-05-02T11:33:14;17.00;99.90
16392;DHT22;8305;-33.882;151.134;2023-05-02T11:35:50;17.00;99.90
16392;DHT22;8305;-33.882;151.134;2023-05-02T11:38:21;17.00;99.90
16392;DHT22;8305;-33.882;151.134;2023-05-02T11:40:57;17.10;99.90
16392;DHT22;8305;-33.882;151.134;2023-05-02T11:43:31;17.10;99.90
16392;DHT22;8305;-33.882;151.134;2023-05-02T11:46:05;17.20;99.90
16392;DHT22;8305;-33.882;151.134;2023-05-02T11:48:36;17.10;99.90
16392;DHT22;8305;-33.882;151.134;2023-05-02T11:51:07;17.20;99.90
16392;DHT22;8305;-33.882;151.134;2023-05-02T11:53:40;17.20;99.90
16392;DHT22;8305;-33.882;151.134;2023-05-02T11:56:12;17.20;99.90
16392;DHT22;8305;-33.882;151.134;2023-05-02T11:58:45;17.10;99.90
16392;DHT22;8305;-33.882;151.134;2023-05-02T12:01:27;17.10;99.90
16392;DHT22;8305;-33.882;151.134;2023-05-02T12:04:03;17.20;99.90
16392;DHT22;8305;-33.882;151.134;2023-05-02T12:06:34;17.20;99.90
16392;DHT22;8305;-33.882;151.134;2023-05-02T12:09:09;17.10;99.90
16392;DHT22;8305;-33.882;151.134;2023-05-02T12:11:41;17.10;99.90
16392;DHT22;8305;-33.882;151.134;2023-05-02T12:14:15;17.10;99.90
16392;DHT22;8305;-33.882;151.134;2023-05-02T12:16:47;17.10;99.90
16392;DHT22;8305;-33.882;151.134;2023-05-02T12:19:18;17.00;99.90
16392;DHT22;8305;-33.882;151.134;2023-05-02T12:21:49;17.00;99.90
16392;DHT22;8305;-33.882;151.134;2023-05-02T12:24:20;17.00;99.90
16392;DHT22;8305;-33.882;151.134;2023-05-02T12:27:09;17.00;99.90
16392;DHT22;8305;-33.882;151.134;2023-05-02T12:29:43;17.00;99.90
16392;DHT22;8305;-33.882;151.134;2023-05-02T12:32:17;17.00;99.90
16392;DHT22;8305;-33.882;151.134;2023-05-02T12:34:56;16.90;99.90
16392;DHT22;8305;-33.882;151.134;2023-05-02T12:37:28;16.90;99.90
16392;DHT22;8305;-33.882;151.134;2023-05-02T12:39:59;16.90;99.90
16392;DHT22;8305;-33.882;151.134;2023-05-02T12:42:30;16.80;99.90
16392;DHT22;8305;-33.882;151.134;2023-05-02T12:45:04;16.70;99.90
16392;DHT22;8305;-33.882;151.134;2023-05-02T12:47:44;16.70;99.90
16392;DHT22;8305;-33.882;151.134;2023-05-02T12:50:15;16.60;99.90
16392;DHT22;8305;-33.882;151.134;2023-05-02T12:52:47;16.60;99.90
16392;DHT22;8305;-33.882;151.134;2023-05-02T12:55:22;16.50;99.90
16392;DHT22;8305;-33.882;151.134;2023-05-02T12:58:01;16.50;99.90
16392;DHT22;8305;-33.882;151.134;2023-05-02T13:00:35;16.40;99.90
16392;DHT22;8305;-33.882;151.134;2023-05-02T13:03:06;16.30;99.90
16392;DHT22;8305;-33.882;151.134;2023-05-02T13:05:37;16.30;99.90
16392;DHT22;8305;-33.882;151.134;2023-05-02T13:08:08;16.30;99.90
16392;DHT22;8305;-33.882;151.134;2023-05-02T13:10:39;16.20;99.90
16392;DHT22;8305;-33.882;151.134;2023-05-02T13:13:11;16.20;99.90
16392;DHT22;8305;-33.882;151.134;2023-05-02T13:15:44;16.10;99.90
16392;DHT22;8305;-33.882;151.134;2023-05-02T13:18:15;16.10;99.90
16392;DHT22;8305;-33.882;151.134;2023-05-02T13:20:47;16.00;99.90
16392;DHT22;8305;-33.882;151.134;2023-05-02T13:23:18;15.90;99.90
16392;DHT22;8305;-33.882;151.134;2023-05-02T13:25:49;15.90;99.90
16392;DHT22;8305;-33.882;151.134;2023-05-02T13:28:20;15.80;99.90
16392;DHT22;8305;-33.882;151.134;2023-05-02T13:30:53;15.70;99.90
16392;DHT22;8305;-33.882;151.134;2023-05-02T13:33:24;15.60;99.90
16392;DHT22;8305;-33.882;151.134;2023-05-02T13:35:55;15.60;99.90
16392;DHT22;8305;-33.882;151.134;2023-05-02T13:38:26;15.50;99.90
16392;DHT22;8305;-33.882;151.134;2023-05-02T13:40:57;15.50;99.90
16392;DHT22;8305;-33.882;151.134;2023-05-02T13:43:28;15.40;99.90
16392;DHT22;8305;-33.882;151.134;2023-05-02T13:46:01;15.30;99.90
16392;DHT22;8305;-33.882;151.134;2023-05-02T13:48:32;15.30;99.90
16392;DHT22;8305;-33.882;151.134;2023-05-02T13:51:04;15.20;99.90
16392;DHT22;8305;-33.882;151.134;2023-05-02T13:53:35;15.20;99.90
16392;DHT22;8305;-33.882;151.134;2023-05-02T13:56:06;15.20;99.90
16392;DHT22;8305;-33.882;151.134;2023-05-02T13:58:37;15.20;99.90
16392;DHT22;8305;-33.882;151.134;2023-05-02T14:01:10;15.10;99.90
16392;DHT22;8305;-33.882;151.134;2023-05-02T14:03:42;15.10;99.90
16392;DHT22;8305;-33.882;151.134;2023-05-02T14:06:13;15.00;99.90
16392;DHT22;8305;-33.882;151.134;2023-05-02T14:08:44;15.00;99.90
16392;DHT22;8305;-33.882;151.134;2023-05-02T14:11:15;14.90;99.90
16392;DHT22;8305;-33.882;151.134;2023-05-02T14:13:46;14.80;99.90
16392;DHT22;8305;-33.882;151.134;2023-05-02T14:16:19;14.80;99.90
16392;DHT22;8305;-33.882;151.134;2023-05-02T14:18:50;14.70;99.90
16392;DHT22;8305;-33.882;151.134;2023-05-02T14:21:21;14.70;99.90
16392;DHT22;8305;-33.882;151.134;2023-05-02T14:23:52;14.70;99.90
16392;DHT22;8305;-33.882;151.134;2023-05-02T14:26:23;14.60;99.90
16392;DHT22;8305;-33.882;151.134;2023-05-02T14:28:54;14.70;99.90
16392;DHT22;8305;-33.882;151.134;2023-05-02T14:31:27;14.60;99.90
16392;DHT22;8305;-33.882;151.134;2023-05-02T14:33:59;14.60;99.90
16392;DHT22;8305;-33.882;151.134;2023-05-02T14:36:30;14.60;99.90
16392;DHT22;8305;-33.882;151.134;2023-05-02T14:39:01;14.50;99.90
16392;DHT22;8305;-33.882;151.134;2023-05-02T14:41:32;14.50;99.90
16392;DHT22;8305;-33.882;151.134;2023-05-02T14:44:03;14.50;99.90
16392;DHT22;8305;-33.882;151.134;2023-05-02T14:46:36;14.60;99.90
16392;DHT22;8305;-33.882;151.134;2023-05-02T14:49:07;14.50;99.90
16392;DHT22;8305;-33.882;151.134;2023-05-02T14:51:38;14.50;99.90
16392;DHT22;8305;-33.882;151.134;2023-05-02T14:54:09;14.50;99.90
16392;DHT22;8305;-33.882;151.134;2023-05-02T14:56:42;14.40;99.90
16392;DHT22;8305;-33.882;151.134;2023-05-02T14:59:13;14.40;99.90
16392;DHT22;8305;-33.882;151.134;2023-05-02T15:01:46;14.40;99.90
16392;DHT22;8305;-33.882;151.134;2023-05-02T15:04:17;14.40;99.90
16392;DHT22;8305;-33.882;151.134;2023-05-02T15:06:48;14.40;99.90
16392;DHT22;8305;-33.882;151.134;2023-05-02T15:09:21;14.40;99.90
16392;DHT22;8305;-33.882;151.134;2023-05-02T15:11:53;14.40;99.90
16392;DHT22;8305;-33.882;151.134;2023-05-02T15:14:24;14.40;99.90
16392;DHT22;8305;-33.882;151.134;2023-05-02T15:16:57;14.40;99.90
16392;DHT22;8305;-33.882;151.134;2023-05-02T15:19:28;14.40;99.90
16392;DHT22;8305;-33.882;151.134;2023-05-02T15:21:59;14.40;99.90
16392;DHT22;8305;-33.882;151.134;2023-05-02T15:24:30;14.40;99.90
16392;DHT22;8305;-33.882;151.134;2023-05-02T15:27:01;14.30;99.90
16392;DHT22;8305;-33.882;151.134;2023-05-02T15:29:33;14.40;99.90
16392;DHT22;8305;-33.882;151.134;2023-05-02T15:32:06;14.40;99.90
16392;DHT22;8305;-33.882;151.134;2023-05-02T15:34:37;14.30;99.90
16392;DHT22;8305;-33.882;151.134;2023-05-02T15:37:08;14.30;99.90
16392;DHT22;8305;-33.882;151.134;2023-05-02T15:39:39;14.30;99.90
16392;DHT22;8305;-33.882;151.134;2023-05-02T15:42:10;14.30;99.90
16392;DHT22;8305;-33.882;151.134;2023-05-02T15:44:41;14.30;99.90
16392;DHT22;8305;-33.882;151.134;2023-05-02T15:47:14;14.30;99.90